Attica, NY

7:31 AM EDT on October 25, 2014 (GMT -0400)
Niagara Falls International | Change Station
CLOSE
Current Station
Airport
Location: Niagara Falls,
Elevation: 584 ft
Nearby Weather Stations

Elev 584 ft 43.11 °N, 78.94 °W | Updated 31 minutes ago

Overcast
Overcast
54 °F
Feels Like 54 °F
N
13
Wind Variable Wind from SW

Today
High -- | Low -- °F
--% Chance of Precip.
Yesterday
High -- | Low -- °F
Precip. -- in
7:38 AM 6:15 PM
Waxing Crescent, 3% visible
Pressure 29.83 in
Visibility 8.0 miles
Clouds Overcast 4000 ft
Dew Point 48 °F
Humidity 80%
Rainfall 0.00 in
Snow Depth Not available.
UV 0 out of 12
Pollen 1.60 out of 12
PM2.5 Good
Flu Activity Sporadic
SPECI KIAG 251100Z 23011KT 8SM OVC040 12/09 A2983 RMK AO2 T01220089

More Conditions Fewer Conditions

Pressure 29.83 in
Visibility 8.0 miles
Clouds Overcast 4000 ft
Dew Point 48 °F
Humidity 80%
Rainfall 0.00 in
Snow Depth Not available.
UV 0 out of 12
Pollen 1.60 out of 12
PM2.5 Good
Flu Activity Sporadic
SPECI KIAG 251100Z 23011KT 8SM OVC040 12/09 A2983 RMK AO2 T01220089

More Conditions Fewer Conditions

10-Day Weather Forecast

Almanac

Astronomy

Oct. 25, 2014 Rise Set
Actual Time 7:38 AM EDT 6:15 PM EDT
Civil Twilight 7:09 AM EDT 6:44 PM EDT
Nautical Twilight 6:36 AM EDT 7:17 PM EDT
Astronomical Twilight 6:03 AM EDT 7:49 PM EDT
Moon 9:17 AM EDT 7:34 PM EDT
Length of Visible Light 11h 34m
Length of Day
10h 36m
Tomorrow will be 2m 41s shorter.
Waxing Crescent, 3% of the Moon is Illuminated
Today
Waxing Crescent
Oct 30
First Quarter
Nov 6
Full
Nov 14
Last Quarter
Nov 22
New

Today's Extremes

State Highs State Lows

Community

WunderPhotos

Upload Photos

1,764,810 photos uploaded!

Nearby

Air Quality

  Air Quality AQ Index Pollutant
Yesterday Good
PM2.5
Yesterday Good
OZONE
Current Good
PM2.5
Saturday Good
PM2.5
Sunday Good
PM2.5
Monday Good
PM2.5

Snow Depth

Station Depth Elevation
No new snow has been reported.

Earthquake Activity

City Distance Mag. Time & Date
No recent earthquake activity has been reported nearby.
Minimum magnitude displayed is 2.5.

Coastal Water Temperatures

Place Temperature
Buffalo, NY 57.0 °F

Nearby Weather Stations